Time;durP1;ratioP1;P1;durP2;ratioP2;P2;SDS_P1;SDS_P2;PMS_P1;PMS_P2;Temp;Humidity;BMP_temperature;BMP_pressure;BME280_temperature;BME280_humidity;BME280_pressure;Samples;Min_cycle;Max_cycle;Signal;HPM_P1;HPM_P2
2023/09/23 00:00:12;;;;;;;0.20;0.10;;;;;;;;;;5008411;28;20052;-85
2023/09/23 00:02:40;;;;;;;0.40;0.20;;;;;;;;;;5004578;28;20509;-84
2023/09/23 00:05:10;;;;;;;0.20;0.10;;;;;;;;;;5007909;28;20038;-87
2023/09/23 00:07:40;;;;;;;0.20;0.10;;;;;;;;;;5024142;28;20045;-87
2023/09/23 00:10:08;;;;;;;0.20;0.10;;;;;;;;;;5010156;28;20037;-87
2023/09/23 00:12:40;;;;;;;0.20;0.10;;;;;;;;;;5006594;28;20045;-86
2023/09/23 00:15:07;;;;;;;0.20;0.10;;;;;;;;;;5010926;28;20683;-85
2023/09/23 00:17:33;;;;;;;0.20;0.15;;;;;;;;;;5023427;28;20033;-87
2023/09/23 00:20:00;;;;;;;0.20;0.10;;;;;;;;;;5008066;28;20037;-87
2023/09/23 00:25:34;;;;;;;0.20;0.00;;;;;;;;;;5012020;28;20053;-86
2023/09/23 00:28:01;;;;;;;0.20;0.10;;;;;;;;;;5024323;28;20077;-86
2023/09/23 00:33:57;;;;;;;0.20;0.00;;;;;;;;;;5021576;28;20045;-88
2023/09/23 00:36:33;;;;;;;0.20;0.10;;;;;;;;;;5006748;28;20034;-88
2023/09/23 00:39:03;;;;;;;0.20;0.00;;;;;;;;;;5028329;23;20066;-84
2023/09/23 00:41:29;;;;;;;0.20;0.08;;;;;;;;;;4980481;28;20046;-85
2023/09/23 00:43:56;;;;;;;0.20;0.10;;;;;;;;;;4987915;28;20034;-83
2023/09/23 00:46:23;;;;;;;0.20;0.00;;;;;;;;;;4977058;28;20541;-82
2023/09/23 00:48:50;;;;;;;0.20;0.00;;;;;;;;;;4988902;28;20070;-85
2023/09/23 00:51:18;;;;;;;0.20;0.10;;;;;;;;;;4991833;28;20513;-86
2023/09/23 00:53:45;;;;;;;0.20;0.10;;;;;;;;;;4976223;28;20410;-84
2023/09/23 00:56:12;;;;;;;0.20;0.10;;;;;;;;;;4979615;28;20039;-83
2023/09/23 00:58:38;;;;;;;0.20;0.00;;;;;;;;;;4996917;28;20553;-83
2023/09/23 01:01:10;;;;;;;0.20;0.00;;;;;;;;;;4991305;28;20046;-83
2023/09/23 01:03:38;;;;;;;0.20;0.10;;;;;;;;;;4974445;28;20061;-84
2023/09/23 01:06:06;;;;;;;0.20;0.10;;;;;;;;;;4980445;28;20293;-83
2023/09/23 01:08:32;;;;;;;0.20;0.10;;;;;;;;;;4973596;28;20038;-83
2023/09/23 01:10:59;;;;;;;0.20;0.10;;;;;;;;;;4992778;28;20088;-83
2023/09/23 01:13:29;;;;;;;0.20;0.10;;;;;;;;;;4993550;28;20053;-84
2023/09/23 01:15:55;;;;;;;0.20;0.00;;;;;;;;;;4976941;28;20044;-82
2023/09/23 01:18:22;;;;;;;0.20;0.10;;;;;;;;;;4971012;28;20129;-83
2023/09/23 01:20:49;;;;;;;0.20;0.10;;;;;;;;;;4988919;28;20066;-82
2023/09/23 01:23:15;;;;;;;0.65;0.13;;;;;;;;;;4977105;28;20042;-83
2023/09/23 01:25:41;;;;;;;0.20;0.10;;;;;;;;;;4974714;28;20121;-83
2023/09/23 01:28:13;;;;;;;0.20;0.00;;;;;;;;;;4972406;28;20039;-84
2023/09/23 01:30:46;;;;;;;0.20;0.10;;;;;;;;;;4989476;28;20061;-85
2023/09/23 01:33:15;;;;;;;0.20;0.10;;;;;;;;;;4982998;28;20043;-83
2023/09/23 01:35:41;;;;;;;0.20;0.20;;;;;;;;;;4974441;28;20097;-82
2023/09/23 01:38:08;;;;;;;0.20;0.10;;;;;;;;;;4974012;28;20042;-82
2023/09/23 01:40:36;;;;;;;0.20;0.10;;;;;;;;;;4988245;28;20046;-82
2023/09/23 01:43:03;;;;;;;0.20;0.20;;;;;;;;;;4976234;28;20134;-83
2023/09/23 01:45:30;;;;;;;0.20;0.10;;;;;;;;;;4991207;28;20506;-81
2023/09/23 01:47:56;;;;;;;0.20;0.00;;;;;;;;;;4974146;28;20506;-84
2023/09/23 01:50:26;;;;;;;0.20;0.10;;;;;;;;;;4991106;28;20035;-82
2023/09/23 01:52:54;;;;;;;0.20;0.10;;;;;;;;;;4987606;28;20053;-81
2023/09/23 01:55:20;;;;;;;0.20;0.00;;;;;;;;;;4973963;28;20053;-85
2023/09/23 01:57:49;;;;;;;0.20;0.03;;;;;;;;;;4974785;28;20070;-82
2023/09/23 02:00:22;;;;;;;0.20;0.10;;;;;;;;;;4989067;28;20499;-82
2023/09/23 02:02:48;;;;;;;0.20;0.00;;;;;;;;;;4970717;28;20088;-83
2023/09/23 02:05:15;;;;;;;0.20;0.10;;;;;;;;;;5004242;28;20050;-83
2023/09/23 02:07:42;;;;;;;0.20;0.00;;;;;;;;;;4972901;28;20203;-80
2023/09/23 02:10:14;;;;;;;0.20;0.10;;;;;;;;;;4988347;28;20406;-80
2023/09/23 02:12:40;;;;;;;;;;;;;;;;;;4974569;28;20419;-83
2023/09/23 02:15:06;;;;;;;0.20;0.00;;;;;;;;;;4972560;28;19923;-81
2023/09/23 02:17:35;;;;;;;0.20;0.00;;;;;;;;;;4971071;28;20038;-83
2023/09/23 02:20:03;;;;;;;0.20;0.00;;;;;;;;;;4975108;28;20383;-81
2023/09/23 02:22:30;;;;;;;0.20;0.05;;;;;;;;;;4983412;28;20045;-82
2023/09/23 02:24:56;;;;;;;0.20;0.10;;;;;;;;;;4987658;28;20590;-82
2023/09/23 02:27:22;;;;;;;0.20;0.10;;;;;;;;;;4972269;28;20521;-81
2023/09/23 02:29:49;;;;;;;0.20;0.10;;;;;;;;;;4990602;28;20113;-81
2023/09/23 02:32:15;;;;;;;0.20;0.00;;;;;;;;;;4982789;28;20046;-83
2023/09/23 02:34:41;;;;;;;0.20;0.00;;;;;;;;;;4973841;28;20045;-82
2023/09/23 02:37:07;;;;;;;0.20;0.10;;;;;;;;;;4969477;28;20399;-83
2023/09/23 02:39:33;;;;;;;0.20;0.00;;;;;;;;;;4983500;28;20038;-84
2023/09/23 02:41:59;;;;;;;0.20;0.10;;;;;;;;;;4989863;28;20034;-83
2023/09/23 02:44:27;;;;;;;0.20;0.00;;;;;;;;;;4978302;28;20034;-84
2023/09/23 02:46:53;;;;;;;0.20;0.08;;;;;;;;;;4988723;28;20042;-84
2023/09/23 02:49:19;;;;;;;0.20;0.00;;;;;;;;;;4986061;28;20073;-82
2023/09/23 02:51:45;;;;;;;0.20;0.10;;;;;;;;;;4986075;28;20034;-83
2023/09/23 02:54:18;;;;;;;0.20;0.10;;;;;;;;;;4980888;28;20475;-85
2023/09/23 02:56:47;;;;;;;0.43;0.43;;;;;;;;;;4975005;28;20050;-82
2023/09/23 02:59:15;;;;;;;0.32;0.20;;;;;;;;;;4982915;28;20339;-84
2023/09/23 03:01:45;;;;;;;0.20;0.10;;;;;;;;;;4975938;28;20038;-84
2023/09/23 03:04:19;;;;;;;0.20;0.08;;;;;;;;;;4984503;28;20495;-83
2023/09/23 03:06:59;;;;;;;0.20;0.10;;;;;;;;;;4972891;28;20038;-82
2023/09/23 03:09:28;;;;;;;0.20;0.00;;;;;;;;;;5003035;28;20394;-83
2023/09/23 03:11:55;;;;;;;0.20;0.10;;;;;;;;;;4974567;28;20052;-85
2023/09/23 03:14:45;;;;;;;0.20;0.00;;;;;;;;;;4972279;28;20050;-83
2023/09/23 03:17:13;;;;;;;0.20;0.10;;;;;;;;;;4985549;28;20042;-84
2023/09/23 03:19:39;;;;;;;0.20;0.10;;;;;;;;;;4971293;28;20207;-84
2023/09/23 03:22:05;;;;;;;0.20;0.00;;;;;;;;;;4972519;28;20065;-87
2023/09/23 03:24:31;;;;;;;0.20;0.00;;;;;;;;;;4988902;28;20494;-83
2023/09/23 03:26:58;;;;;;;0.20;0.00;;;;;;;;;;4967513;28;20114;-84
2023/09/23 03:29:28;;;;;;;0.20;0.00;;;;;;;;;;4971297;28;20515;-84
2023/09/23 03:31:55;;;;;;;0.20;0.10;;;;;;;;;;4969916;28;20035;-85
2023/09/23 03:34:21;;;;;;;0.20;0.10;;;;;;;;;;4977693;28;20125;-84
2023/09/23 03:36:47;;;;;;;0.20;0.10;;;;;;;;;;4988303;28;20506;-85
2023/09/23 03:39:14;;;;;;;0.20;0.10;;;;;;;;;;4972032;28;20088;-84
2023/09/23 03:41:44;;;;;;;0.20;0.10;;;;;;;;;;4967146;28;20077;-86
2023/09/23 03:44:10;;;;;;;0.20;0.00;;;;;;;;;;4986581;28;20121;-85
2023/09/23 03:46:36;;;;;;;0.20;0.10;;;;;;;;;;4984552;28;20074;-86
2023/09/23 03:49:02;;;;;;;0.20;0.10;;;;;;;;;;4984381;28;20065;-84
2023/09/23 03:51:28;;;;;;;0.20;0.08;;;;;;;;;;4973235;28;20564;-85
2023/09/23 03:53:54;;;;;;;0.20;0.00;;;;;;;;;;4983276;28;20553;-88
2023/09/23 03:56:24;;;;;;;0.20;0.00;;;;;;;;;;4974189;28;20046;-85
2023/09/23 03:58:55;;;;;;;0.20;0.00;;;;;;;;;;4982755;28;20042;-85
2023/09/23 04:01:23;;;;;;;0.20;0.08;;;;;;;;;;4976611;28;20573;-83
2023/09/23 04:03:51;;;;;;;0.35;0.13;;;;;;;;;;4973016;28;20539;-84
2023/09/23 04:06:17;;;;;;;0.20;0.00;;;;;;;;;;4979598;28;20042;-84
2023/09/23 04:08:43;;;;;;;0.20;0.10;;;;;;;;;;4989155;28;20128;-85
2023/09/23 04:11:10;;;;;;;0.20;0.00;;;;;;;;;;4972581;28;20038;-85
2023/09/23 04:13:39;;;;;;;0.20;0.20;;;;;;;;;;4971606;28;20130;-83
2023/09/23 04:16:05;;;;;;;0.20;0.10;;;;;;;;;;4985120;28;20159;-83
2023/09/23 04:18:31;;;;;;;0.20;0.10;;;;;;;;;;4967467;28;20056;-83
2023/09/23 04:20:59;;;;;;;0.22;0.03;;;;;;;;;;4984895;28;20090;-84
2023/09/23 04:23:26;;;;;;;0.20;0.10;;;;;;;;;;4973924;28;20046;-83
2023/09/23 04:25:52;;;;;;;0.20;0.10;;;;;;;;;;4972623;28;20042;-83
2023/09/23 04:28:22;;;;;;;0.20;0.10;;;;;;;;;;4974857;28;20418;-84
2023/09/23 04:30:52;;;;;;;0.20;0.00;;;;;;;;;;4972605;28;20042;-85
2023/09/23 04:33:18;;;;;;;0.20;0.10;;;;;;;;;;4972419;28;20062;-85
2023/09/23 04:35:44;;;;;;;0.77;0.30;;;;;;;;;;4970664;28;20465;-83
2023/09/23 04:38:10;;;;;;;0.20;0.20;;;;;;;;;;4990923;28;20039;-83
2023/09/23 04:40:37;;;;;;;0.20;0.00;;;;;;;;;;4989417;28;20509;-82
2023/09/23 04:43:04;;;;;;;0.20;0.10;;;;;;;;;;4973482;28;20042;-83
2023/09/23 04:45:30;;;;;;;0.60;0.40;;;;;;;;;;4978028;28;20046;-83
2023/09/23 04:47:56;;;;;;;0.30;0.20;;;;;;;;;;4973676;28;20038;-83
2023/09/23 04:50:27;;;;;;;0.20;0.10;;;;;;;;;;4973689;28;20037;-83
2023/09/23 04:52:53;;;;;;;0.20;0.10;;;;;;;;;;4986370;28;20096;-85
2023/09/23 04:55:20;;;;;;;0.40;0.30;;;;;;;;;;4974720;28;20038;-84
2023/09/23 04:57:46;;;;;;;0.38;0.38;;;;;;;;;;4969707;28;20043;-83
2023/09/23 05:00:19;;;;;;;0.20;0.10;;;;;;;;;;4973792;28;20042;-84
2023/09/23 05:02:47;;;;;;;;;;;;;;;;;;4986667;28;20137;-84
2023/09/23 05:05:15;;;;;;;0.45;0.20;;;;;;;;;;4975051;28;19918;-83
2023/09/23 05:07:41;;;;;;;0.30;0.20;;;;;;;;;;4974228;28;20042;-84
2023/09/23 05:10:07;;;;;;;0.28;0.20;;;;;;;;;;4971914;28;20038;-85
2023/09/23 05:12:34;;;;;;;0.20;0.10;;;;;;;;;;4988102;28;20030;-84
2023/09/23 05:15:00;;;;;;;0.43;0.20;;;;;;;;;;4983519;28;20050;-83
2023/09/23 05:17:28;;;;;;;0.22;0.03;;;;;;;;;;5006811;28;20018;-83
2023/09/23 05:19:54;;;;;;;0.22;0.20;;;;;;;;;;5008898;28;20048;-79
2023/09/23 05:22:20;;;;;;;0.77;0.22;;;;;;;;;;5010525;28;20712;-83
2023/09/23 05:24:47;;;;;;;0.30;0.10;;;;;;;;;;5013433;28;20033;-84
2023/09/23 05:27:14;;;;;;;0.20;0.13;;;;;;;;;;4992411;28;20090;-84
2023/09/23 05:29:42;;;;;;;0.20;0.10;;;;;;;;;;5010698;28;20042;-84
2023/09/23 05:32:12;;;;;;;0.20;0.00;;;;;;;;;;4995229;28;20056;-83
2023/09/23 05:34:42;;;;;;;0.20;0.10;;;;;;;;;;5007136;28;20340;-84
2023/09/23 05:37:11;;;;;;;7.53;0.45;;;;;;;;;;5007207;28;20057;-82
2023/09/23 05:39:37;;;;;;;0.20;0.20;;;;;;;;;;4979833;28;20034;-83
2023/09/23 05:42:03;;;;;;;0.25;0.25;;;;;;;;;;4983136;28;20077;-83
2023/09/23 05:44:29;;;;;;;0.63;0.40;;;;;;;;;;4979670;28;20038;-84
2023/09/23 05:46:55;;;;;;;0.20;0.00;;;;;;;;;;4994378;28;20042;-85
2023/09/23 05:49:22;;;;;;;0.20;0.10;;;;;;;;;;4995871;28;20108;-84
2023/09/23 05:51:52;;;;;;;0.25;0.08;;;;;;;;;;4981584;28;20046;-85
2023/09/23 05:54:20;;;;;;;0.20;0.10;;;;;;;;;;4977113;28;20045;-85
2023/09/23 05:56:46;;;;;;;0.55;0.20;;;;;;;;;;4980118;28;20113;-84
2023/09/23 05:59:12;;;;;;;0.20;0.20;;;;;;;;;;4979491;28;20304;-84
2023/09/23 06:01:42;;;;;;;0.40;0.30;;;;;;;;;;4993131;28;20552;-85
2023/09/23 06:04:11;;;;;;;0.20;0.05;;;;;;;;;;4997777;28;20054;-83
2023/09/23 06:06:40;;;;;;;0.38;0.22;;;;;;;;;;4978623;28;20540;-83
2023/09/23 06:09:06;;;;;;;0.20;0.03;;;;;;;;;;4996832;28;20053;-84
2023/09/23 06:11:37;;;;;;;0.20;0.10;;;;;;;;;;5001261;28;20051;-85
2023/09/23 06:14:03;;;;;;;0.20;0.10;;;;;;;;;;4979807;28;20046;-83
2023/09/23 06:16:29;;;;;;;0.20;0.10;;;;;;;;;;4978839;28;20043;-84
2023/09/23 06:18:55;;;;;;;0.20;0.10;;;;;;;;;;4976792;28;20041;-83
2023/09/23 06:21:21;;;;;;;3.20;0.50;;;;;;;;;;4980728;28;20391;-85
2023/09/23 06:23:47;;;;;;;0.20;0.10;;;;;;;;;;4991650;28;20049;-84
2023/09/23 06:26:13;;;;;;;0.20;0.15;;;;;;;;;;4973769;28;20081;-83
2023/09/23 06:28:39;;;;;;;0.38;0.35;;;;;;;;;;4974526;28;20046;-84
2023/09/23 06:31:09;;;;;;;0.20;0.10;;;;;;;;;;4976667;28;20122;-85
2023/09/23 06:33:35;;;;;;;0.22;0.20;;;;;;;;;;4994731;28;20522;-84
2023/09/23 06:36:05;;;;;;;0.32;0.32;;;;;;;;;;4973041;28;20061;-82
2023/09/23 06:38:32;;;;;;;0.20;0.08;;;;;;;;;;4973539;28;20446;-82
2023/09/23 06:41:04;;;;;;;0.20;0.10;;;;;;;;;;5013196;23;20326;-84
2023/09/23 06:43:40;;;;;;;0.20;0.10;;;;;;;;;;4999321;28;20411;-84
2023/09/23 06:46:06;;;;;;;0.22;0.22;;;;;;;;;;5018868;28;20054;-85
2023/09/23 06:48:33;;;;;;;0.20;0.20;;;;;;;;;;5004346;28;20517;-83
2023/09/23 06:51:00;;;;;;;2.50;0.32;;;;;;;;;;5021172;28;20533;-84
2023/09/23 06:53:26;;;;;;;0.73;0.43;;;;;;;;;;5007720;28;20061;-84
2023/09/23 06:55:52;;;;;;;0.32;0.22;;;;;;;;;;5006866;28;20383;-85
2023/09/23 06:58:18;;;;;;;0.20;0.13;;;;;;;;;;5022639;28;20647;-85
2023/09/23 07:00:45;;;;;;;0.20;0.17;;;;;;;;;;5010039;28;20064;-85
2023/09/23 07:03:11;;;;;;;0.20;0.15;;;;;;;;;;5023279;28;20041;-85
2023/09/23 07:05:37;;;;;;;0.20;0.10;;;;;;;;;;5020750;28;20049;-82
2023/09/23 07:08:03;;;;;;;0.50;0.38;;;;;;;;;;5025935;28;20144;-83
2023/09/23 07:10:29;;;;;;;0.70;0.30;;;;;;;;;;5015637;28;20042;-85
2023/09/23 07:12:55;;;;;;;0.20;0.00;;;;;;;;;;5019999;28;20123;-81
2023/09/23 07:15:23;;;;;;;0.20;0.13;;;;;;;;;;5003041;28;20143;-85
2023/09/23 07:17:49;;;;;;;0.20;0.10;;;;;;;;;;5018055;28;20045;-84
2023/09/23 07:20:15;;;;;;;0.20;0.10;;;;;;;;;;5013900;28;20045;-84
2023/09/23 07:22:41;;;;;;;0.80;0.55;;;;;;;;;;5020357;28;20052;-82
2023/09/23 07:25:07;;;;;;;0.20;0.10;;;;;;;;;;5010622;28;20059;-84
2023/09/23 07:27:33;;;;;;;0.20;0.10;;;;;;;;;;5006810;28;20077;-85
2023/09/23 07:30:01;;;;;;;1.00;0.77;;;;;;;;;;5020980;28;20135;-84
2023/09/23 07:32:27;;;;;;;0.20;0.15;;;;;;;;;;5021152;28;20513;-85
2023/09/23 07:34:53;;;;;;;0.32;0.32;;;;;;;;;;5018375;28;20056;-84
2023/09/23 07:37:19;;;;;;;0.20;0.15;;;;;;;;;;5025282;28;20052;-83
2023/09/23 07:39:45;;;;;;;1.55;0.38;;;;;;;;;;5005662;28;20498;-83
2023/09/23 07:42:12;;;;;;;0.50;0.17;;;;;;;;;;5020224;28;20045;-84
2023/09/23 07:44:38;;;;;;;0.30;0.20;;;;;;;;;;5020903;28;20029;-84
2023/09/23 07:47:04;;;;;;;0.20;0.15;;;;;;;;;;5019687;28;20048;-85
2023/09/23 07:49:30;;;;;;;0.20;0.10;;;;;;;;;;5020481;28;20545;-85
2023/09/23 07:51:58;;;;;;;0.20;0.10;;;;;;;;;;5037845;28;20044;-84
2023/09/23 07:54:24;;;;;;;0.20;0.13;;;;;;;;;;5036387;28;20209;-84
2023/09/23 07:56:50;;;;;;;0.32;0.32;;;;;;;;;;5024122;28;20624;-81
2023/09/23 07:59:16;;;;;;;0.20;0.10;;;;;;;;;;5020894;28;20038;-82
2023/09/23 08:01:42;;;;;;;0.30;0.25;;;;;;;;;;5022406;28;20034;-82
2023/09/23 08:04:08;;;;;;;0.20;0.10;;;;;;;;;;5008195;28;20729;-81
2023/09/23 08:06:34;;;;;;;0.20;0.00;;;;;;;;;;5021435;28;20041;-82
2023/09/23 08:09:00;;;;;;;0.68;0.55;;;;;;;;;;5006788;28;20583;-81
2023/09/23 08:11:26;;;;;;;0.20;0.10;;;;;;;;;;5027386;28;20508;-82
2023/09/23 08:13:53;;;;;;;0.40;0.30;;;;;;;;;;5022206;28;20095;-82
2023/09/23 08:16:20;;;;;;;0.20;0.10;;;;;;;;;;5020130;28;20053;-82
2023/09/23 08:18:46;;;;;;;0.20;0.00;;;;;;;;;;5019615;28;20120;-82
2023/09/23 08:21:12;;;;;;;0.57;0.28;;;;;;;;;;5038997;28;20124;-81
2023/09/23 08:23:38;;;;;;;0.20;0.10;;;;;;;;;;5021227;28;20045;-84
2023/09/23 08:26:04;;;;;;;0.20;0.10;;;;;;;;;;5011265;28;20081;-84
2023/09/23 08:28:30;;;;;;;0.20;0.10;;;;;;;;;;5022867;28;20068;-83
2023/09/23 08:30:56;;;;;;;0.20;0.10;;;;;;;;;;5021998;28;20041;-83
2023/09/23 08:33:23;;;;;;;0.20;0.00;;;;;;;;;;5024786;28;20049;-83
2023/09/23 08:35:49;;;;;;;0.63;0.63;;;;;;;;;;5008080;28;20072;-84
2023/09/23 08:38:15;;;;;;;1.38;0.45;;;;;;;;;;5004417;28;20096;-85
2023/09/23 08:40:44;;;;;;;0.22;0.22;;;;;;;;;;5015333;28;20046;-85
2023/09/23 08:43:10;;;;;;;0.20;0.10;;;;;;;;;;5008321;28;20181;-84
2023/09/23 08:45:40;;;;;;;0.35;0.35;;;;;;;;;;5021881;28;20038;-84
2023/09/23 08:48:06;;;;;;;0.20;0.10;;;;;;;;;;5007764;28;20060;-83
2023/09/23 08:50:32;;;;;;;0.20;0.10;;;;;;;;;;5023050;28;20041;-84
2023/09/23 08:52:59;;;;;;;0.20;0.10;;;;;;;;;;5008783;28;20037;-82
2023/09/23 08:55:26;;;;;;;0.20;0.10;;;;;;;;;;5037514;28;20498;-82
2023/09/23 08:57:55;;;;;;;0.65;0.30;;;;;;;;;;5022076;28;20059;-83
2023/09/23 09:00:21;;;;;;;0.20;0.00;;;;;;;;;;5019158;28;20053;-82
2023/09/23 09:02:47;;;;;;;0.30;0.10;;;;;;;;;;5022597;28;20042;-82
2023/09/23 09:05:14;;;;;;;0.30;0.30;;;;;;;;;;5006032;28;20072;-82
2023/09/23 09:07:40;;;;;;;0.30;0.25;;;;;;;;;;5018616;28;20037;-82
2023/09/23 09:10:06;;;;;;;0.20;0.10;;;;;;;;;;5018419;28;20404;-84
2023/09/23 09:12:32;;;;;;;0.95;0.35;;;;;;;;;;5018322;28;20959;-84
2023/09/23 09:14:59;;;;;;;0.20;0.10;;;;;;;;;;5016195;28;20045;-84
2023/09/23 09:17:25;;;;;;;0.20;0.10;;;;;;;;;;5002521;28;20041;-83
2023/09/23 09:19:51;;;;;;;0.68;0.65;;;;;;;;;;5023720;28;20033;-82
2023/09/23 09:22:19;;;;;;;0.35;0.30;;;;;;;;;;5022442;28;20164;-84
2023/09/23 09:24:48;;;;;;;0.35;0.35;;;;;;;;;;5022934;28;20391;-84
2023/09/23 09:27:15;;;;;;;0.20;0.10;;;;;;;;;;5012444;28;20061;-82
2023/09/23 09:29:42;;;;;;;0.20;0.10;;;;;;;;;;5025413;28;20080;-82
2023/09/23 09:32:13;;;;;;;0.20;0.00;;;;;;;;;;5025148;28;20038;-83
2023/09/23 09:34:46;;;;;;;0.20;0.10;;;;;;;;;;5026831;28;20053;-84
2023/09/23 09:37:16;;;;;;;0.20;0.17;;;;;;;;;;5025123;28;20557;-83
2023/09/23 09:39:51;;;;;;;4.43;0.52;;;;;;;;;;5011205;28;20156;-80
2023/09/23 09:42:30;;;;;;;0.20;0.10;;;;;;;;;;5027159;28;20037;-81
2023/09/23 09:45:00;;;;;;;0.20;0.10;;;;;;;;;;5010083;28;20044;-83
2023/09/23 09:47:29;;;;;;;0.32;0.22;;;;;;;;;;5017683;28;20121;-82
2023/09/23 09:49:55;;;;;;;0.20;0.10;;;;;;;;;;5022345;28;20037;-82
2023/09/23 09:52:22;;;;;;;0.85;0.45;;;;;;;;;;5020921;28;20064;-84
2023/09/23 09:54:52;;;;;;;0.65;0.63;;;;;;;;;;5021617;28;20052;-82
2023/09/23 09:57:19;;;;;;;0.50;0.30;;;;;;;;;;5021916;28;20110;-84
2023/09/23 09:59:45;;;;;;;0.20;0.00;;;;;;;;;;5025536;28;20048;-83
2023/09/23 10:02:14;;;;;;;0.30;0.20;;;;;;;;;;5027317;28;20033;-83
2023/09/23 10:04:45;;;;;;;0.30;0.28;;;;;;;;;;5005943;28;20042;-82
2023/09/23 10:07:11;;;;;;;0.28;0.20;;;;;;;;;;5026193;28;20037;-83
2023/09/23 10:09:40;;;;;;;0.20;0.00;;;;;;;;;;5008691;28;20505;-83
2023/09/23 10:12:07;;;;;;;0.20;0.00;;;;;;;;;;5008163;28;20512;-82
2023/09/23 10:14:33;;;;;;;0.45;0.20;;;;;;;;;;5010538;28;20494;-83
2023/09/23 10:17:01;;;;;;;0.20;0.10;;;;;;;;;;5025977;28;20048;-85
2023/09/23 10:19:31;;;;;;;0.20;0.10;;;;;;;;;;5026963;28;20044;-84
2023/09/23 10:22:26;;;;;;;0.65;0.35;;;;;;;;;;5028194;28;20501;-83
2023/09/23 10:25:08;;;;;;;0.20;0.10;;;;;;;;;;5007622;28;20413;-84
2023/09/23 10:27:39;;;;;;;0.77;0.30;;;;;;;;;;5024082;28;20053;-82
2023/09/23 10:30:06;;;;;;;0.20;0.20;;;;;;;;;;5016611;28;20489;-84
2023/09/23 10:32:32;;;;;;;0.20;0.05;;;;;;;;;;5024451;28;20065;-85
2023/09/23 10:34:59;;;;;;;0.50;0.35;;;;;;;;;;5010164;28;20405;-82
2023/09/23 10:37:26;;;;;;;0.32;0.20;;;;;;;;;;5024270;28;20100;-81
2023/09/23 10:39:52;;;;;;;0.20;0.10;;;;;;;;;;5027641;28;20160;-82
2023/09/23 10:42:19;;;;;;;0.30;0.22;;;;;;;;;;5022169;28;20041;-83
2023/09/23 10:44:48;;;;;;;0.20;0.05;;;;;;;;;;5020748;28;20052;-82
2023/09/23 10:47:14;;;;;;;0.20;0.03;;;;;;;;;;5027299;28;20044;-83
2023/09/23 10:49:40;;;;;;;0.20;0.20;;;;;;;;;;5044190;28;20041;-82
2023/09/23 10:52:06;;;;;;;0.20;0.10;;;;;;;;;;5008746;28;20045;-84
2023/09/23 10:54:34;;;;;;;0.55;0.55;;;;;;;;;;5023016;28;20557;-82
2023/09/23 10:57:01;;;;;;;0.20;0.15;;;;;;;;;;5023348;28;20569;-82
2023/09/23 10:59:27;;;;;;;0.32;0.25;;;;;;;;;;5021730;28;20034;-84
2023/09/23 11:01:56;;;;;;;0.20;0.10;;;;;;;;;;5023491;28;20132;-83
2023/09/23 11:04:28;;;;;;;0.20;0.00;;;;;;;;;;5019841;28;20402;-83
2023/09/23 11:06:54;;;;;;;0.20;0.10;;;;;;;;;;5018496;28;20433;-82
2023/09/23 11:09:21;;;;;;;0.20;0.10;;;;;;;;;;5015817;28;20685;-85
2023/09/23 11:11:47;;;;;;;0.20;0.10;;;;;;;;;;5014564;28;20042;-83
2023/09/23 11:14:16;;;;;;;0.20;0.03;;;;;;;;;;5022782;28;20166;-85
2023/09/23 11:16:42;;;;;;;0.20;0.10;;;;;;;;;;5006769;28;20030;-83
2023/09/23 11:19:09;;;;;;;0.68;0.30;;;;;;;;;;5022208;28;20045;-82
2023/09/23 11:21:53;;;;;;;0.40;0.40;;;;;;;;;;5021485;28;20073;-83
2023/09/23 11:24:19;;;;;;;0.20;0.10;;;;;;;;;;5007379;28;20528;-84
2023/09/23 11:26:45;;;;;;;0.20;0.10;;;;;;;;;;5009209;28;20079;-84
2023/09/23 11:29:11;;;;;;;0.50;0.20;;;;;;;;;;5004201;28;20041;-82
2023/09/23 11:31:38;;;;;;;0.20;0.10;;;;;;;;;;5022674;28;20049;-86
2023/09/23 11:34:04;;;;;;;1.05;0.95;;;;;;;;;;5024113;28;20337;-83
2023/09/23 11:36:30;;;;;;;0.20;0.00;;;;;;;;;;5022474;28;20604;-82
2023/09/23 11:38:56;;;;;;;0.20;0.08;;;;;;;;;;5023984;28;20029;-82
2023/09/23 11:41:23;;;;;;;0.20;0.10;;;;;;;;;;5022642;28;20092;-82
2023/09/23 11:43:50;;;;;;;0.20;0.10;;;;;;;;;;5020495;28;20037;-82
2023/09/23 11:46:19;;;;;;;0.20;0.10;;;;;;;;;;5022007;28;20112;-81
2023/09/23 11:48:48;;;;;;;0.20;0.10;;;;;;;;;;5023388;28;20049;-84
2023/09/23 11:51:14;;;;;;;0.20;0.15;;;;;;;;;;5005720;28;20506;-84
2023/09/23 11:53:41;;;;;;;0.20;0.10;;;;;;;;;;5023470;28;20087;-84
2023/09/23 11:56:07;;;;;;;0.20;0.10;;;;;;;;;;5006264;28;21800;-83
2023/09/23 11:58:33;;;;;;;0.20;0.10;;;;;;;;;;5022038;28;20402;-84
2023/09/23 12:01:01;;;;;;;0.20;0.10;;;;;;;;;;5007667;28;20034;-83
2023/09/23 12:03:28;;;;;;;0.20;0.10;;;;;;;;;;5021888;28;20045;-81
2023/09/23 12:05:56;;;;;;;0.20;0.00;;;;;;;;;;5015522;28;20044;-83
2023/09/23 12:08:22;;;;;;;0.20;0.10;;;;;;;;;;5021139;28;20108;-86
2023/09/23 12:10:48;;;;;;;0.20;0.10;;;;;;;;;;5019183;28;20048;-83
2023/09/23 12:13:14;;;;;;;0.20;0.10;;;;;;;;;;5034577;28;20037;-81
2023/09/23 12:15:40;;;;;;;1.50;0.63;;;;;;;;;;5021083;28;20040;-83
2023/09/23 12:18:07;;;;;;;0.20;0.00;;;;;;;;;;5002261;28;20487;-81
2023/09/23 12:20:33;;;;;;;0.22;0.08;;;;;;;;;;5024651;28;20220;-80
2023/09/23 12:23:00;;;;;;;0.30;0.10;;;;;;;;;;5022971;28;20045;-84
2023/09/23 12:25:26;;;;;;;0.20;0.00;;;;;;;;;;5021555;28;20465;-83
2023/09/23 12:27:52;;;;;;;0.20;0.00;;;;;;;;;;5023714;28;20042;-84
2023/09/23 12:30:19;;;;;;;0.20;0.10;;;;;;;;;;5022639;28;20037;-81
2023/09/23 12:32:45;;;;;;;0.20;0.10;;;;;;;;;;5017193;28;20049;-82
2023/09/23 12:35:11;;;;;;;0.20;0.10;;;;;;;;;;5001727;28;20513;-83
2023/09/23 12:37:38;;;;;;;0.20;0.00;;;;;;;;;;5006449;28;20088;-82
2023/09/23 12:40:07;;;;;;;0.20;0.10;;;;;;;;;;5037715;23;20038;-81
2023/09/23 12:42:33;;;;;;;0.30;0.30;;;;;;;;;;5004584;28;20314;-82
2023/09/23 12:44:59;;;;;;;0.20;0.10;;;;;;;;;;5008884;28;20082;-79
2023/09/23 12:47:25;;;;;;;0.20;0.08;;;;;;;;;;5008130;28;20045;-81
2023/09/23 12:49:52;;;;;;;0.20;0.00;;;;;;;;;;5029113;28;20049;-82
2023/09/23 12:52:18;;;;;;;0.20;0.03;;;;;;;;;;4996311;28;20521;-85
2023/09/23 12:54:44;;;;;;;0.20;0.10;;;;;;;;;;4996795;28;20042;-80
2023/09/23 12:57:10;;;;;;;0.20;0.13;;;;;;;;;;5006107;28;20038;-82
2023/09/23 12:59:36;;;;;;;0.20;0.10;;;;;;;;;;4992141;28;20034;-82
2023/09/23 13:02:02;;;;;;;0.20;0.00;;;;;;;;;;5010747;28;20088;-82
2023/09/23 13:04:29;;;;;;;0.20;0.10;;;;;;;;;;5013706;28;20058;-83
2023/09/23 13:06:55;;;;;;;0.20;0.00;;;;;;;;;;4991754;28;20112;-82
2023/09/23 13:09:21;;;;;;;0.20;0.20;;;;;;;;;;4994305;28;20046;-82
2023/09/23 13:11:47;;;;;;;0.20;0.00;;;;;;;;;;5010290;28;20066;-83
2023/09/23 13:14:13;;;;;;;0.20;0.10;;;;;;;;;;5015123;28;20049;-84
2023/09/23 13:16:42;;;;;;;0.20;0.10;;;;;;;;;;4997230;28;20041;-88
2023/09/23 13:19:08;;;;;;;0.20;0.05;;;;;;;;;;5011797;28;20473;-81
2023/09/23 13:21:34;;;;;;;0.20;0.10;;;;;;;;;;5015417;28;20048;-82
2023/09/23 13:24:00;;;;;;;0.20;0.10;;;;;;;;;;5011603;28;20046;-85
2023/09/23 13:26:26;;;;;;;0.20;0.10;;;;;;;;;;5017083;28;20068;-85
2023/09/23 13:28:52;;;;;;;0.20;0.10;;;;;;;;;;5018145;28;20531;-83
2023/09/23 13:31:18;;;;;;;0.20;0.10;;;;;;;;;;5000134;28;20038;-84
2023/09/23 13:33:45;;;;;;;0.20;0.10;;;;;;;;;;5008238;28;20038;-83
2023/09/23 13:36:12;;;;;;;0.20;0.00;;;;;;;;;;5020788;28;20125;-86
2023/09/23 13:38:38;;;;;;;0.20;0.10;;;;;;;;;;5020306;28;20050;-83
2023/09/23 13:41:05;;;;;;;0.20;0.10;;;;;;;;;;5024845;28;20049;-85
2023/09/23 13:43:31;;;;;;;0.20;0.10;;;;;;;;;;5018732;28;20111;-85
2023/09/23 13:45:57;;;;;;;0.20;0.10;;;;;;;;;;5016658;28;20079;-85
2023/09/23 13:48:23;;;;;;;0.20;0.10;;;;;;;;;;5006983;28;20184;-84
2023/09/23 13:50:49;;;;;;;0.20;0.10;;;;;;;;;;5006112;28;20054;-83
2023/09/23 13:53:15;;;;;;;0.20;0.10;;;;;;;;;;4995883;28;20029;-84
2023/09/23 13:55:41;;;;;;;0.20;0.10;;;;;;;;;;4988262;28;20054;-83
2023/09/23 13:58:07;;;;;;;0.20;0.10;;;;;;;;;;5013369;28;20061;-82
2023/09/23 14:00:34;;;;;;;0.20;0.00;;;;;;;;;;4996625;28;20465;-82
2023/09/23 14:03:00;;;;;;;0.20;0.00;;;;;;;;;;5003236;28;20045;-84
2023/09/23 14:05:26;;;;;;;0.20;0.10;;;;;;;;;;5025781;28;20053;-89
2023/09/23 14:07:52;;;;;;;0.20;0.10;;;;;;;;;;5018881;28;20075;-85
2023/09/23 14:10:18;;;;;;;0.20;0.00;;;;;;;;;;5012174;28;20553;-80
2023/09/23 14:12:44;;;;;;;0.20;0.10;;;;;;;;;;5017479;28;20069;-85
2023/09/23 14:15:10;;;;;;;0.20;0.10;;;;;;;;;;4986479;28;20040;-84
2023/09/23 14:17:39;;;;;;;0.20;0.10;;;;;;;;;;5014448;28;20042;-86
2023/09/23 14:20:09;;;;;;;0.20;0.10;;;;;;;;;;5008502;28;20042;-86
2023/09/23 14:22:35;;;;;;;0.20;0.10;;;;;;;;;;4992859;28;20257;-85
2023/09/23 14:25:02;;;;;;;0.20;0.03;;;;;;;;;;5008828;28;20037;-85
2023/09/23 14:27:28;;;;;;;0.20;0.10;;;;;;;;;;4992405;28;20037;-85
2023/09/23 14:29:55;;;;;;;0.20;0.10;;;;;;;;;;5001907;28;20038;-85
2023/09/23 14:32:21;;;;;;;0.20;0.10;;;;;;;;;;5002238;28;20483;-88
2023/09/23 14:34:53;;;;;;;0.20;0.00;;;;;;;;;;4993135;28;20091;-90
2023/09/23 14:37:19;;;;;;;0.20;0.10;;;;;;;;;;5009204;28;20037;-87
2023/09/23 14:39:48;;;;;;;0.20;0.00;;;;;;;;;;5015521;28;20069;-88
2023/09/23 14:42:14;;;;;;;0.85;0.32;;;;;;;;;;5029485;28;20057;-84
2023/09/23 14:44:40;;;;;;;0.20;0.10;;;;;;;;;;4994037;28;20060;-87
2023/09/23 14:47:16;;;;;;;0.20;0.10;;;;;;;;;;5000254;28;20045;-86
2023/09/23 14:49:42;;;;;;;0.20;0.10;;;;;;;;;;5003800;28;20046;-84